Terminal Aerodrome Forecast
Issued by NWS Binghamton, NY

Home | Current Version | Previous Version | Text Only | Print | Product List | Glossary On
Versions: 1 2 3 4 5 6 7 8 9 10 11 12 13
296
FTUS41 KBGM 282339
TAFAVP
TAF
KAVP 282339Z 2900/2924 19005KT P6SM SCT250
     FM290900 VRB04KT P6SM SCT025 BKN040
     FM291500 33007KT P6SM SCT050=

USA.gov is the U.S. government's official web portal to all federal, state and local government web resources and services.